createdAt,value
2018-05-27T00:02:17.912Z,9.60
2018-05-27T00:04:46.825Z,10.00
2018-05-27T00:07:14.972Z,10.27
2018-05-27T00:09:43.905Z,10.23
2018-05-27T00:12:12.038Z,9.80
2018-05-27T00:14:40.978Z,9.77
2018-05-27T00:17:09.114Z,9.80
2018-05-27T00:19:37.257Z,10.20
2018-05-27T00:22:05.408Z,9.47
2018-05-27T00:24:33.540Z,10.00
2018-05-27T00:27:01.706Z,10.03
2018-05-27T00:29:29.843Z,10.13
2018-05-27T00:32:02.669Z,9.33
2018-05-27T00:34:30.812Z,9.47
2018-05-27T00:36:59.722Z,8.80
2018-05-27T00:39:27.872Z,10.00
2018-05-27T00:41:56.794Z,10.43
2018-05-27T00:44:24.934Z,8.67
2018-05-27T00:46:53.865Z,10.10
2018-05-27T00:49:22.017Z,10.00
2018-05-27T00:51:50.531Z,11.37
2018-05-27T00:54:18.666Z,9.73
2018-05-27T00:56:46.817Z,10.50
2018-05-27T00:59:15.717Z,10.50
2018-05-27T01:01:44.664Z,11.50
2018-05-27T01:04:12.814Z,10.20
2018-05-27T01:06:40.962Z,10.30
2018-05-27T01:09:09.115Z,9.53
2018-05-27T01:11:37.242Z,10.33
2018-05-27T01:14:05.409Z,10.27
2018-05-27T01:16:33.547Z,10.07
2018-05-27T01:19:01.725Z,10.27
2018-05-27T01:21:29.884Z,10.60
2018-05-27T01:23:58.034Z,9.93
2018-05-27T01:26:26.938Z,11.17
2018-05-27T01:28:56.376Z,11.13
2018-05-27T01:31:24.493Z,8.97
2018-05-27T01:33:52.658Z,12.03
2018-05-27T01:36:20.794Z,10.77
2018-05-27T01:38:48.948Z,11.37
2018-05-27T01:41:17.080Z,10.83
2018-05-27T01:43:45.245Z,10.90
2018-05-27T01:46:13.379Z,10.03
2018-05-27T01:48:41.537Z,11.40
2018-05-27T01:51:09.677Z,10.23
2018-05-27T01:53:38.627Z,10.67
2018-05-27T01:56:06.758Z,10.77
2018-05-27T01:58:34.901Z,10.20
2018-05-27T02:01:03.118Z,11.30
2018-05-27T02:03:31.595Z,10.93
2018-05-27T02:05:59.750Z,11.03
2018-05-27T02:08:28.650Z,10.47
2018-05-27T02:10:57.258Z,11.37
2018-05-27T02:13:25.393Z,10.73
2018-05-27T02:15:53.566Z,10.97
2018-05-27T02:18:22.457Z,11.03
2018-05-27T02:20:50.617Z,10.73
2018-05-27T02:23:19.516Z,12.10
2018-05-27T02:25:47.687Z,9.97
2018-05-27T02:28:15.842Z,10.10
2018-05-27T02:30:44.886Z,11.37
2018-05-27T02:33:13.047Z,10.57
2018-05-27T02:35:41.202Z,11.37
2018-05-27T02:38:09.350Z,10.87
2018-05-27T02:40:38.286Z,11.27
2018-05-27T02:43:06.430Z,11.43
2018-05-27T02:45:35.334Z,11.47
2018-05-27T02:48:03.503Z,11.50
2018-05-27T02:50:31.638Z,12.67
2018-05-27T02:52:59.799Z,10.93
2018-05-27T02:55:27.937Z,11.50
2018-05-27T02:57:56.090Z,11.73
2018-05-27T03:00:24.336Z,10.73
2018-05-27T03:02:52.505Z,11.10
2018-05-27T03:05:20.637Z,11.83
2018-05-27T03:07:48.797Z,12.23
2018-05-27T03:10:16.950Z,10.70
2018-05-27T03:12:45.118Z,12.07
2018-05-27T03:15:13.279Z,12.07
2018-05-27T03:17:42.273Z,11.30
2018-05-27T03:20:10.418Z,11.83
2018-05-27T03:22:38.578Z,11.23
2018-05-27T03:25:06.721Z,11.40
2018-05-27T03:27:34.894Z,10.97
2018-05-27T03:30:03.034Z,11.87
2018-05-27T03:32:32.230Z,11.27
2018-05-27T03:35:00.381Z,12.50
2018-05-27T03:37:28.523Z,12.77
2018-05-27T03:39:57.811Z,11.37
2018-05-27T03:42:26.486Z,11.23
2018-05-27T03:44:55.642Z,12.67
2018-05-27T03:47:24.554Z,12.40
2018-05-27T03:49:52.729Z,12.60
2018-05-27T03:52:21.904Z,12.97
2018-05-27T03:54:50.755Z,12.43
2018-05-27T03:57:18.886Z,12.10
2018-05-27T03:59:47.046Z,11.30
2018-05-27T04:02:15.201Z,11.93
2018-05-27T04:05:04.071Z,12.00
2018-05-27T04:07:44.909Z,12.03
2018-05-27T04:10:13.050Z,12.07
2018-05-27T04:12:42.631Z,12.30
2018-05-27T04:15:10.785Z,12.47
2018-05-27T04:17:39.777Z,12.43
2018-05-27T04:20:08.817Z,12.60
2018-05-27T04:22:37.717Z,11.10
2018-05-27T04:25:06.898Z,11.67
2018-05-27T04:27:35.269Z,12.77
2018-05-27T04:30:03.410Z,12.30
2018-05-27T04:32:31.545Z,13.97
2018-05-27T04:34:59.697Z,14.87
2018-05-27T04:37:27.843Z,12.27
2018-05-27T04:39:56.906Z,14.33
2018-05-27T04:42:25.029Z,13.50
2018-05-27T04:44:53.973Z,13.17
2018-05-27T04:47:22.865Z,12.93
2018-05-27T04:49:51.799Z,12.60
2018-05-27T04:52:20.906Z,11.77
2018-05-27T04:54:49.070Z,12.20
2018-05-27T04:57:18.500Z,11.90
2018-05-27T04:59:50.288Z,12.57
2018-05-27T05:02:19.755Z,11.63
2018-05-27T05:04:48.816Z,12.67
2018-05-27T05:07:16.964Z,11.60
2018-05-27T05:09:45.105Z,13.07
2018-05-27T05:12:15.145Z,13.00
2018-05-27T05:14:43.280Z,10.93
2018-05-27T05:17:11.457Z,12.30
2018-05-27T05:19:39.589Z,12.57
2018-05-27T05:22:09.544Z,12.67
2018-05-27T05:24:38.132Z,14.03
2018-05-27T05:27:06.273Z,14.83
2018-05-27T05:29:34.417Z,15.43
2018-05-27T05:32:02.901Z,14.30
2018-05-27T05:34:31.891Z,15.00
2018-05-27T05:37:00.417Z,15.20
2018-05-27T05:39:28.576Z,13.23
2018-05-27T05:41:56.743Z,15.47
2018-05-27T05:44:25.419Z,14.73
2018-05-27T05:46:53.600Z,12.70
2018-05-27T05:49:22.549Z,14.03
2018-05-27T05:51:53.470Z,12.77
2018-05-27T05:54:21.976Z,12.73
2018-05-27T05:56:50.898Z,13.07
2018-05-27T05:59:20.054Z,14.00
2018-05-27T06:01:48.238Z,12.80
2018-05-27T06:04:16.386Z,13.77
2018-05-27T06:06:44.886Z,12.97
2018-05-27T06:09:13.038Z,12.40
2018-05-27T06:11:42.881Z,11.53
2018-05-27T06:14:11.046Z,12.57
2018-05-27T06:16:39.173Z,11.47
2018-05-27T06:19:08.746Z,13.93
2018-05-27T06:21:37.449Z,13.80
2018-05-27T06:24:05.601Z,12.90
2018-05-27T06:26:34.275Z,13.33
2018-05-27T06:29:02.444Z,12.43
2018-05-27T06:31:30.633Z,12.07
2018-05-27T06:33:59.742Z,11.50
2018-05-27T06:36:27.889Z,12.07
2018-05-27T06:38:56.045Z,11.63
2018-05-27T06:41:24.750Z,11.10
2018-05-27T06:43:52.904Z,11.50
2018-05-27T06:46:21.049Z,10.20
2018-05-27T06:48:49.975Z,11.90
2018-05-27T06:51:18.175Z,11.40
2018-05-27T06:53:46.944Z,12.33
2018-05-27T06:56:17.218Z,13.20
2018-05-27T06:58:45.369Z,13.10
2018-05-27T07:01:14.281Z,10.77
2018-05-27T07:03:42.641Z,12.33
2018-05-27T07:06:12.385Z,12.70
2018-05-27T07:08:41.756Z,12.13
2018-05-27T07:11:10.680Z,13.43
2018-05-27T07:13:38.827Z,10.93
2018-05-27T07:16:06.978Z,13.13
2018-05-27T07:18:36.274Z,11.20
2018-05-27T07:21:04.430Z,12.60
2018-05-27T07:23:33.441Z,12.00
2018-05-27T07:26:02.357Z,12.23
2018-05-27T07:28:30.492Z,12.97
2018-05-27T07:30:59.415Z,10.60
2018-05-27T07:33:27.560Z,13.47
2018-05-27T07:35:56.484Z,13.77
2018-05-27T07:38:24.621Z,12.60
2018-05-27T07:40:54.198Z,12.80
2018-05-27T07:43:22.335Z,11.57
2018-05-27T07:45:50.675Z,11.40
2018-05-27T07:48:19.504Z,12.87
2018-05-27T07:50:47.747Z,12.10
2018-05-27T07:53:15.902Z,13.10
2018-05-27T07:55:44.828Z,13.27
2018-05-27T07:58:14.015Z,12.77
2018-05-27T08:00:42.090Z,12.80
2018-05-27T08:03:10.252Z,13.23
2018-05-27T08:05:39.156Z,13.90
2018-05-27T08:08:07.857Z,13.13
2018-05-27T08:10:35.997Z,14.53
2018-05-27T08:13:04.711Z,13.60
2018-05-27T08:15:34.155Z,12.27
2018-05-27T08:18:02.329Z,13.83
2018-05-27T08:20:30.520Z,13.60
2018-05-27T08:23:00.683Z,13.13
2018-05-27T08:25:33.376Z,13.07
2018-05-27T08:28:02.267Z,13.03
2018-05-27T08:30:31.247Z,14.30
2018-05-27T08:32:59.398Z,11.93
2018-05-27T08:35:27.529Z,13.30
2018-05-27T08:37:58.419Z,13.00
2018-05-27T08:40:26.550Z,13.83
2018-05-27T08:42:55.492Z,14.00
2018-05-27T08:45:23.618Z,12.63
2018-05-27T08:47:51.782Z,12.57
2018-05-27T08:50:22.488Z,13.07
2018-05-27T08:52:50.634Z,10.90
2018-05-27T08:55:18.768Z,11.30
2018-05-27T08:57:46.929Z,12.07
2018-05-27T09:00:15.825Z,11.50
2018-05-27T09:02:44.844Z,10.63
2018-05-27T09:05:12.986Z,10.53
2018-05-27T09:07:41.907Z,11.00
2018-05-27T09:10:11.012Z,10.47
2018-05-27T09:12:39.158Z,10.57
2018-05-27T09:15:07.359Z,10.30
2018-05-27T09:17:35.520Z,9.93
2018-05-27T09:20:04.351Z,9.80
2018-05-27T09:22:32.491Z,10.53
2018-05-27T09:25:01.285Z,10.97
2018-05-27T09:27:29.951Z,9.17
2018-05-27T09:29:58.102Z,11.47
2018-05-27T09:32:26.349Z,10.10
2018-05-27T09:34:55.272Z,10.93
2018-05-27T09:37:24.211Z,11.27
2018-05-27T09:39:52.353Z,10.13
2018-05-27T09:42:20.489Z,13.93
2018-05-27T09:44:48.649Z,10.90
2018-05-27T09:47:17.575Z,9.73
2018-05-27T09:49:46.346Z,9.33
2018-05-27T09:52:14.481Z,9.77
2018-05-27T09:54:42.650Z,8.67
2018-05-27T09:57:10.794Z,9.50
2018-05-27T09:59:38.941Z,9.27
2018-05-27T10:02:07.169Z,9.70
2018-05-27T10:04:35.328Z,9.00
2018-05-27T10:07:04.049Z,8.53
2018-05-27T10:09:32.953Z,8.97
2018-05-27T10:12:01.101Z,10.27
2018-05-27T10:14:30.326Z,8.87
2018-05-27T10:16:59.603Z,9.40
2018-05-27T10:19:32.171Z,9.10
2018-05-27T10:22:00.337Z,8.37
2018-05-27T10:24:34.101Z,9.10
2018-05-27T10:27:02.242Z,7.70
2018-05-27T10:29:30.391Z,7.33
2018-05-27T10:32:00.275Z,7.57
2018-05-27T10:34:30.121Z,8.87
2018-05-27T10:36:59.029Z,7.23
2018-05-27T10:39:27.573Z,8.27
2018-05-27T10:41:56.709Z,8.70
2018-05-27T10:44:25.711Z,7.43
2018-05-27T10:46:53.850Z,7.03
2018-05-27T10:49:22.771Z,8.57
2018-05-27T10:51:50.897Z,7.50
2018-05-27T10:54:22.906Z,6.97
2018-05-27T10:56:51.042Z,8.10
2018-05-27T10:59:20.489Z,7.57
2018-05-27T11:01:48.648Z,7.50
2018-05-27T11:04:16.776Z,9.33
2018-05-27T11:06:45.816Z,7.67
2018-05-27T11:09:14.197Z,7.40
2018-05-27T11:11:42.853Z,7.70
2018-05-27T11:14:11.402Z,8.23
2018-05-27T11:16:40.313Z,6.63
2018-05-27T11:19:10.186Z,8.13
2018-05-27T11:21:39.325Z,8.53
2018-05-27T11:24:08.242Z,8.50
2018-05-27T11:26:36.375Z,8.10
2018-05-27T11:29:05.373Z,8.20
2018-05-27T11:31:34.273Z,8.10
2018-05-27T11:34:02.418Z,8.00
2018-05-27T11:36:30.545Z,7.60
2018-05-27T11:38:59.022Z,7.40
2018-05-27T11:41:28.139Z,7.23
2018-05-27T11:43:56.287Z,7.50
2018-05-27T11:46:24.426Z,8.43
2018-05-27T11:48:52.574Z,7.70
2018-05-27T11:51:21.465Z,7.50
2018-05-27T11:53:49.604Z,7.23
2018-05-27T11:56:21.424Z,7.30
2018-05-27T11:58:50.323Z,7.53
2018-05-27T12:01:19.673Z,7.70
2018-05-27T12:03:49.476Z,7.23
2018-05-27T12:06:17.610Z,7.57
2018-05-27T12:08:45.747Z,6.97
2018-05-27T12:11:14.658Z,7.40
2018-05-27T12:13:42.794Z,7.93
2018-05-27T12:16:11.514Z,8.80
2018-05-27T12:18:41.453Z,6.80
2018-05-27T12:32:57.183Z,7.33
2018-05-27T12:35:25.432Z,7.23
2018-05-27T12:37:54.165Z,7.33
2018-05-27T12:40:22.433Z,7.17
2018-05-27T12:42:51.457Z,7.87
2018-05-27T12:45:20.483Z,8.93
2018-05-27T12:47:48.698Z,8.00
2018-05-27T12:50:17.720Z,8.83
2018-05-27T12:52:45.971Z,7.30
2018-05-27T12:55:14.222Z,7.83
2018-05-27T12:57:42.453Z,7.17
2018-05-27T13:00:11.538Z,7.73
2018-05-27T13:02:40.545Z,7.07
2018-05-27T13:05:08.769Z,7.23
2018-05-27T13:07:37.009Z,7.30
2018-05-27T13:10:05.227Z,7.00
2018-05-27T13:12:33.491Z,7.47
2018-05-27T13:15:01.722Z,9.30
2018-05-27T13:17:29.975Z,7.60
2018-05-27T13:19:58.965Z,7.13
2018-05-27T13:22:27.976Z,8.03
2018-05-27T13:24:56.197Z,7.10
2018-05-27T13:27:24.441Z,6.27
2018-05-27T13:29:53.397Z,6.50
2018-05-27T13:32:21.638Z,6.07
2018-05-27T13:34:50.601Z,6.90
2018-05-27T13:37:19.207Z,6.30
2018-05-27T13:39:47.515Z,6.60
2018-05-27T13:42:15.759Z,6.60
2018-05-27T13:44:43.955Z,6.40
2018-05-27T13:47:12.190Z,6.57
2018-05-27T13:49:40.525Z,6.33
2018-05-27T13:52:08.753Z,6.40
2018-05-27T13:54:36.986Z,6.07
2018-05-27T13:57:05.205Z,6.90
2018-05-27T13:59:33.439Z,6.87
2018-05-27T14:02:01.662Z,7.10
2018-05-27T14:04:29.890Z,6.93
2018-05-27T14:06:58.112Z,7.80
2018-05-27T14:09:26.357Z,7.00
2018-05-27T14:11:54.589Z,7.57
2018-05-27T14:14:22.834Z,7.33
2018-05-27T14:16:51.834Z,6.70
2018-05-27T14:19:20.071Z,6.60
2018-05-27T14:21:48.286Z,6.60
2018-05-27T14:24:16.586Z,6.53
2018-05-27T14:26:44.746Z,7.33
2018-05-27T14:29:12.967Z,7.23
2018-05-27T14:31:41.173Z,7.50
2018-05-27T14:34:09.372Z,6.93
2018-05-27T14:36:37.634Z,7.40
2018-05-27T14:39:05.844Z,7.40
2018-05-27T14:41:34.074Z,6.77
2018-05-27T14:44:02.277Z,6.37
2018-05-27T14:46:30.526Z,7.23
2018-05-27T14:48:58.749Z,6.50
2018-05-27T14:51:26.994Z,6.67
2018-05-27T14:53:55.949Z,6.90
2018-05-27T14:56:24.305Z,7.20
2018-05-27T14:58:52.522Z,6.80
2018-05-27T15:01:20.791Z,6.93
2018-05-27T15:03:48.997Z,6.83
2018-05-27T15:06:17.245Z,7.17
2018-05-27T15:08:45.467Z,7.27
2018-05-27T15:11:13.708Z,7.50
2018-05-27T15:13:41.910Z,7.07
2018-05-27T15:16:10.286Z,7.00
2018-05-27T15:18:39.053Z,7.23
2018-05-27T15:21:07.330Z,7.30
2018-05-27T15:23:35.550Z,6.70
2018-05-27T15:26:03.824Z,7.13
2018-05-27T15:28:32.019Z,6.50
2018-05-27T15:31:01.094Z,6.90
2018-05-27T15:33:29.391Z,6.90
2018-05-27T15:35:57.588Z,6.63
2018-05-27T15:38:26.603Z,6.10
2018-05-27T15:40:54.823Z,6.70
2018-05-27T15:43:23.063Z,6.33
2018-05-27T15:45:51.300Z,6.73
2018-05-27T15:48:20.300Z,6.90
2018-05-27T15:50:49.325Z,6.57
2018-05-27T15:53:17.650Z,6.43
2018-05-27T15:55:45.867Z,6.80
2018-05-27T15:58:14.117Z,6.47
2018-05-27T16:00:42.345Z,6.57
2018-05-27T16:03:10.576Z,6.10
2018-05-27T16:05:39.570Z,6.03
2018-05-27T16:08:07.815Z,6.17
2018-05-27T16:10:36.774Z,6.80
2018-05-27T16:13:05.008Z,6.20
2018-05-27T16:15:33.239Z,6.57
2018-05-27T16:18:01.474Z,6.83
2018-05-27T16:20:29.673Z,5.77
2018-05-27T16:22:57.900Z,6.60
2018-05-27T16:25:26.097Z,6.40
2018-05-27T16:27:54.372Z,6.23
2018-05-27T16:30:22.583Z,6.90
2018-05-27T16:32:51.550Z,6.43
2018-05-27T16:35:19.806Z,6.73
2018-05-27T16:37:48.026Z,6.60
2018-05-27T16:40:16.279Z,6.87
2018-05-27T16:42:44.492Z,7.07
2018-05-27T16:45:12.746Z,6.87
2018-05-27T16:47:40.966Z,6.97
2018-05-27T16:50:09.228Z,7.50
2018-05-27T16:52:37.496Z,7.13
2018-05-27T16:55:05.822Z,7.00
2018-05-27T16:57:35.030Z,7.87
2018-05-27T17:00:03.271Z,7.73
2018-05-27T17:02:31.482Z,6.37
2018-05-27T17:04:59.710Z,7.33
2018-05-27T17:07:27.930Z,6.83
2018-05-27T17:09:56.172Z,7.43
2018-05-27T17:12:24.407Z,7.30
2018-05-27T17:14:52.650Z,7.00
2018-05-27T17:17:21.630Z,6.53
2018-05-27T17:19:50.652Z,7.80
2018-05-27T17:22:19.113Z,8.03
2018-05-27T17:24:48.134Z,8.00
2018-05-27T17:27:16.354Z,8.43
2018-05-27T17:29:44.600Z,8.20
2018-05-27T17:32:12.825Z,11.00
2018-05-27T17:34:41.065Z,10.23
2018-05-27T17:37:09.320Z,8.93
2018-05-27T17:39:37.538Z,8.80
2018-05-27T17:42:06.553Z,8.53
2018-05-27T17:44:35.532Z,8.37
2018-05-27T17:47:04.136Z,8.90
2018-05-27T17:49:32.305Z,9.30
2018-05-27T17:52:00.671Z,9.33
2018-05-27T17:54:28.888Z,10.67
2018-05-27T17:56:57.114Z,9.30
2018-05-27T17:59:25.313Z,9.60
2018-05-27T18:01:53.556Z,9.03
2018-05-27T18:04:21.754Z,9.63
2018-05-27T18:06:49.995Z,8.80
2018-05-27T18:09:18.976Z,8.50
2018-05-27T18:11:47.997Z,9.50
2018-05-27T18:14:17.294Z,8.80
2018-05-27T18:16:45.903Z,9.27
2018-05-27T18:19:14.138Z,9.80
2018-05-27T18:21:43.264Z,8.97
2018-05-27T18:24:11.470Z,9.37
2018-05-27T18:26:39.670Z,8.40
2018-05-27T18:29:07.902Z,8.00
2018-05-27T18:31:36.113Z,8.73
2018-05-27T18:34:04.807Z,8.43
2018-05-27T18:36:33.806Z,8.57
2018-05-27T18:39:02.105Z,9.60
2018-05-27T18:41:31.158Z,12.70
2018-05-27T18:44:01.193Z,10.40
2018-05-27T18:46:29.966Z,9.70
2018-05-27T18:48:58.229Z,10.03
2018-05-27T18:51:26.468Z,9.80
2018-05-27T18:53:54.707Z,9.63
2018-05-27T18:56:22.931Z,9.00
2018-05-27T18:58:51.159Z,9.57
2018-05-27T19:01:20.140Z,9.77
2018-05-27T19:03:48.373Z,9.13
2018-05-27T19:06:16.587Z,9.90
2018-05-27T19:08:45.573Z,9.70
2018-05-27T19:11:14.578Z,9.37
2018-05-27T19:13:43.780Z,9.17
2018-05-27T19:16:12.014Z,8.90
2018-05-27T19:18:40.238Z,13.40
2018-05-27T19:21:08.506Z,13.70
2018-05-27T19:23:37.487Z,11.27
2018-05-27T19:26:05.800Z,9.10
2018-05-27T19:28:33.989Z,9.43
2018-05-27T19:31:02.222Z,10.93
2018-05-27T19:33:30.474Z,8.80
2018-05-27T19:35:59.099Z,8.70
2018-05-27T19:38:27.300Z,8.33
2018-05-27T19:40:55.584Z,8.90
2018-05-27T19:43:23.852Z,8.67
2018-05-27T19:45:52.187Z,9.00
2018-05-27T19:48:21.330Z,7.80
2018-05-27T19:50:50.444Z,10.67
2018-05-27T19:53:18.650Z,11.90
2018-05-27T19:55:46.880Z,9.23
2018-05-27T19:58:15.086Z,8.33
2018-05-27T20:00:43.385Z,8.00
2018-05-27T20:03:11.753Z,7.83
2018-05-27T20:05:41.141Z,7.50
2018-05-27T20:08:09.550Z,7.50
2018-05-27T20:10:37.873Z,9.10
2018-05-27T20:13:06.151Z,8.40
2018-05-27T20:15:34.503Z,8.43
2018-05-27T20:18:02.811Z,7.80
2018-05-27T20:20:31.109Z,9.60
2018-05-27T20:22:59.678Z,8.13
2018-05-27T20:25:29.176Z,9.00
2018-05-27T20:27:57.663Z,9.10
2018-05-27T20:30:26.338Z,8.60
2018-05-27T20:32:54.683Z,7.90
2018-05-27T20:35:23.212Z,8.17
2018-05-27T20:37:51.623Z,8.13
2018-05-27T20:40:19.881Z,9.17
2018-05-27T20:42:48.131Z,8.83
2018-05-27T20:45:16.665Z,8.90
2018-05-27T20:47:45.137Z,9.47
2018-05-27T20:50:13.466Z,9.20
2018-05-27T20:52:41.767Z,8.80
2018-05-27T20:55:10.467Z,8.13
2018-05-27T20:57:38.886Z,8.67
2018-05-27T21:00:07.130Z,8.10
2018-05-27T21:02:36.131Z,9.23
2018-05-27T21:05:04.695Z,8.70
2018-05-27T21:07:33.712Z,9.40
2018-05-27T21:10:01.980Z,8.67
2018-05-27T21:12:30.249Z,9.63
2018-05-27T21:14:58.517Z,9.53
2018-05-27T21:17:26.738Z,8.77
2018-05-27T21:19:54.990Z,10.97
2018-05-27T21:22:24.155Z,9.87
2018-05-27T21:24:52.439Z,23.40
2018-05-27T21:27:20.908Z,13.90
2018-05-27T21:29:49.314Z,16.90
2018-05-27T21:32:17.677Z,10.07
2018-05-27T21:34:46.141Z,8.47
2018-05-27T21:37:14.514Z,9.97
2018-05-27T21:39:42.788Z,9.77
2018-05-27T21:42:11.849Z,8.80
2018-05-27T21:44:40.234Z,9.10
2018-05-27T21:47:08.697Z,8.77
2018-05-27T21:49:37.793Z,9.10
2018-05-27T21:52:06.266Z,13.50
2018-05-27T21:54:34.585Z,16.43
2018-05-27T21:57:02.831Z,10.38
2018-05-27T21:59:31.057Z,10.00
2018-05-27T22:01:59.317Z,11.07
2018-05-27T22:04:27.508Z,9.50
2018-05-27T22:06:56.548Z,10.17
2018-05-27T22:09:24.774Z,9.93
2018-05-27T22:11:56.877Z,9.90
2018-05-27T22:14:25.121Z,9.97
2018-05-27T22:16:54.165Z,9.33
2018-05-27T22:19:23.273Z,9.60
2018-05-27T22:21:51.947Z,9.80
2018-05-27T22:24:20.163Z,9.43
2018-05-27T22:26:48.413Z,10.17
2018-05-27T22:29:16.625Z,9.60
2018-05-27T22:31:44.890Z,8.93
2018-05-27T22:34:13.861Z,9.67
2018-05-27T22:36:42.104Z,10.13
2018-05-27T22:39:10.351Z,10.63
2018-05-27T22:41:40.626Z,9.77
2018-05-27T22:44:09.674Z,10.10
2018-05-27T22:46:38.377Z,10.10
2018-05-27T22:49:06.656Z,10.20
2018-05-27T22:51:35.625Z,10.20
2018-05-27T22:54:03.861Z,10.70
2018-05-27T22:56:32.069Z,11.07
2018-05-27T22:59:00.322Z,9.90
2018-05-27T23:01:28.553Z,10.87
2018-05-27T23:03:56.786Z,11.23
2018-05-27T23:06:24.988Z,11.63
2018-05-27T23:08:53.217Z,12.00
2018-05-27T23:11:22.197Z,10.83
2018-05-27T23:13:50.432Z,11.83
2018-05-27T23:16:18.658Z,10.47
2018-05-27T23:18:46.913Z,11.23
2018-05-27T23:21:15.939Z,12.40
2018-05-27T23:23:44.175Z,12.37
2018-05-27T23:26:12.411Z,12.50
2018-05-27T23:28:40.651Z,12.07
2018-05-27T23:31:08.882Z,12.57
2018-05-27T23:33:37.122Z,13.77
2018-05-27T23:36:05.358Z,12.00
2018-05-27T23:38:33.627Z,12.97
2018-05-27T23:41:01.830Z,12.77
2018-05-27T23:43:30.090Z,14.00
2018-05-27T23:45:59.174Z,13.77
2018-05-27T23:48:27.446Z,12.90
2018-05-27T23:50:55.681Z,13.50
2018-05-27T23:53:24.392Z,14.40
2018-05-27T23:55:53.444Z,12.70
2018-05-27T23:58:21.724Z,11.80
